EZY39EG LGSK-EGLL
Flight info
| Callsign | EZY39EG |
|---|---|
| Flight time | N/A |
| Altitude | 35000 |
| Route | TSL1B TSL DCT TALAS DCT MAVAR DCT RINAV DCT RETRA DCT NETKO DCT OKLAX DCT PUL DCT ROTAR DCT SUMIR DCT SAFFA DCT RONAG DCT RLP DCT IRBAL DCT KUNAV KUNAV1G |
| Aircraft | A32N/M-V/N |
Departure
| Time | 2026-04-16 07:47 |
|---|---|
| Airport | Skiathos Island National Airport (LGSK) |
Arrival
| Time | N/A |
|---|---|
| Airport | London Heathrow Airport (EGLL) |
| Time | Latitude | Longitude | Altitude | Speed | Heading |
|---|---|---|---|---|---|
| 2026-04-16 07:30 | 39.17878 | 23.50214 | 51 ft | 0 kts | 287° |
| 2026-04-16 07:40 | 39.17875 | 23.50228 | 47 ft | 3 kts | 287° |
| 2026-04-16 07:40 | 39.17869 | 23.50252 | 44 ft | 2 kts | 287° |
| 2026-04-16 07:41 | 39.17868 | 23.50258 | 43 ft | 1 kts | 287° |
| 2026-04-16 07:44 | 39.17868 | 23.50254 | 44 ft | 4 kts | 284° |
| 2026-04-16 07:44 | 39.17845 | 23.50242 | 44 ft | 11 kts | 179° |
| 2026-04-16 07:44 | 39.17717 | 23.50267 | 39 ft | 22 kts | 147° |
| 2026-04-16 07:45 | 39.17648 | 23.50372 | 40 ft | 10 kts | 186° |
| 2026-04-16 07:45 | 39.17510 | 23.50268 | 34 ft | 43 kts | 199° |
| 2026-04-16 07:45 | 39.17214 | 23.50144 | 22 ft | 36 kts | 198° |
| 2026-04-16 07:45 | 39.17115 | 23.50102 | 20 ft | 15 kts | 198° |
| 2026-04-16 07:46 | 39.17008 | 23.50082 | 15 ft | 16 kts | 211° |
| 2026-04-16 07:46 | 39.17019 | 23.50033 | 15 ft | 4 kts | 22° |
| 2026-04-16 07:46 | 39.17028 | 23.50043 | 16 ft | 0 kts | 35° |
| 2026-04-16 07:46 | 39.17038 | 23.50051 | 16 ft | 15 kts | 34° |
| 2026-04-16 07:47 | 39.17490 | 23.50252 | 34 ft | 117 kts | 19° |
| 2026-04-16 07:47 | 39.18456 | 23.50695 | 365 ft | 158 kts | 19° |
| 2026-04-16 07:47 | 39.19502 | 23.51186 | 1297 ft | 162 kts | 21° |
| 2026-04-16 07:47 | 39.20587 | 23.51646 | 2219 ft | 169 kts | 18° |
| 2026-04-16 07:48 | 39.21797 | 23.52085 | 2927 ft | 193 kts | 17° |
| 2026-04-16 07:48 | 39.23124 | 23.52573 | 4006 ft | 202 kts | 20° |
| 2026-04-16 07:48 | 39.24483 | 23.53133 | 5159 ft | 208 kts | 29° |
| 2026-04-16 07:48 | 39.25295 | 23.53780 | 5893 ft | 209 kts | 44° |
| 2026-04-16 07:49 | 39.26168 | 23.55260 | 6996 ft | 210 kts | 69° |
| 2026-04-16 07:49 | 39.26435 | 23.57130 | 8013 ft | 218 kts | 95° |
| 2026-04-16 07:49 | 39.25972 | 23.59006 | 9083 ft | 225 kts | 122° |
| 2026-04-16 07:49 | 39.24840 | 23.60415 | 10172 ft | 232 kts | 150° |
| 2026-04-16 07:50 | 39.23286 | 23.60974 | 11232 ft | 236 kts | 173° |
| 2026-04-16 07:50 | 39.21642 | 23.61161 | 12322 ft | 239 kts | 174° |
| 2026-04-16 07:50 | 39.19978 | 23.61355 | 13413 ft | 241 kts | 174° |
| 2026-04-16 07:50 | 39.18294 | 23.61564 | 14394 ft | 245 kts | 174° |
| 2026-04-16 07:51 | 39.16583 | 23.61953 | 15133 ft | 261 kts | 158° |
| 2026-04-16 07:51 | 39.15109 | 23.63469 | 15572 ft | 290 kts | 126° |
| 2026-04-16 07:51 | 39.14378 | 23.66007 | 15958 ft | 321 kts | 98° |